• Join FlightAware (Why Join?)
  • Login
  • US Flag 
08:41PM EDT


 

Airport Tracker/Info


-or-


 

Live Flight TrackerFlight Track Log ✈ N102WY ✈ 19-May-2013 ✈ KLAR - KRKS

Flight Track Log - Related Links

Times and Time Zones

All times are in EDT time to prevent confusion due to time zone crossing. See the N102WY flight status page for this flight to view local times or setup timezone preferences in your user account.

Time Position Orientation Groundspeed Altitude Reporting Facility
EDT Latitude Longitude Course Direction KTS MPH feet Rate Location/Type
04:27PM 41.3542 -105.8606 311° West 252 290 11,300  Level Denver Center
04:28PM 41.3714 -105.9733 282° West 275 316 14,100 2,700 Climbing Denver Center
04:29PM 41.3803 -106.0953 276° West 296 341 17,000 2,640 Climbing Denver Center
04:30PM 41.3900 -106.2044 277° West 308 354 19,600 2,820 Climbing Denver Center
04:31PM 41.3136 -105.7055 274° West  Level FlightAware Approximate
04:31PM 41.4017 -106.3331 277° West 313 360 22,800  Level Denver Center
04:32PM 41.4103 -106.4469 276° West 322 371 25,200 2,280 Climbing Denver Center
04:33PM 41.4211 -106.5758 276° West 332 382 27,600 1,320 Climbing Denver Center
04:34PM 41.4294 -106.7022 275° West 352 405 28,000 180 Climbing Denver Center
04:35PM 41.4428 -106.8572 277° West 374 430 28,000  Level Denver Center
04:36PM 41.4531 -106.9936 276° West 385 443 28,000  Level Denver Center
04:37PM 41.4631 -107.1486 275° West 378 435 28,000  Level Denver Center
04:38PM 41.4731 -107.2817 276° West 377 434 28,000  Level Denver Center
04:39PM 41.4844 -107.4400 276° West 384 442 28,000  Level Denver Center
04:40PM 41.4919 -107.5761 274° West 387 445 28,000  Level Denver Center
04:41PM 41.5017 -107.7128 275° West 387 445 28,000 -720 Level Denver Center
04:43PM 41.5117 -107.8756 275° West 395 455 26,600 -1,620 Descending Denver Center
04:44PM 41.5200 -108.0092 275° West 381 438 24,800 -1,980 Descending Denver Center
04:45PM 41.5281 -108.1469 275° West 339 390 22,600 -2,160 Descending Denver Center
04:45PM 41.5342 -108.2419 275° West 324 373 21,000 -1,620 Descending Salt Lake Center
04:46PM 41.5372 -108.3519 272° West 314 361 19,800 -1,620 Descending Salt Lake Center
04:47PM 41.5447 -108.4575 275° West 301 346 17,800 -1,980 Descending Salt Lake Center